Time;durP1;ratioP1;P1;durP2;ratioP2;P2;SDS_P1;SDS_P2;PMS_P1;PMS_P2;Temp;Humidity;BMP_temperature;BMP_pressure;BME280_temperature;BME280_humidity;BME280_pressure;Samples;Min_cycle;Max_cycle;Signal;HPM_P1;HPM_P2
2023/07/23 00:00:29;;;;;;;5.63;2.58;;;19.90;90.40;;;;;;5096361;28;20105;-77
2023/07/23 00:02:55;;;;;;;5.70;3.00;;;19.90;90.60;;;;;;5114286;28;20023;-76
2023/07/23 00:05:23;;;;;;;3.65;2.00;;;19.80;90.90;;;;;;5096399;28;20042;-77
2023/07/23 00:07:49;;;;;;;4.43;2.97;;;19.80;91.00;;;;;;5114462;28;20023;-77
2023/07/23 00:10:15;;;;;;;4.28;2.13;;;19.80;90.90;;;;;;5114648;28;20494;-77
2023/07/23 00:12:41;;;;;;;3.85;2.00;;;19.80;90.80;;;;;;5114262;28;20036;-77
2023/07/23 00:15:07;;;;;;;4.28;2.40;;;19.80;90.90;;;;;;5114102;28;20398;-77
2023/07/23 00:17:32;;;;;;;3.10;2.22;;;19.70;90.80;;;;;;5095846;28;20444;-77
2023/07/23 00:19:58;;;;;;;4.50;2.00;;;19.80;90.80;;;;;;5095840;28;20119;-77
2023/07/23 00:22:25;;;;;;;3.78;1.85;;;19.80;90.70;;;;;;5113880;28;20051;-77
2023/07/23 00:24:56;;;;;;;3.88;1.92;;;19.80;90.60;;;;;;5095304;28;20027;-77
2023/07/23 00:27:23;;;;;;;6.47;2.78;;;19.80;90.70;;;;;;5114213;28;20031;-78
2023/07/23 00:29:48;;;;;;;3.42;2.20;;;19.70;91.10;;;;;;5114057;28;20031;-77
2023/07/23 00:32:14;;;;;;;2.80;2.00;;;19.60;91.10;;;;;;5114062;28;20535;-77
2023/07/23 00:34:40;;;;;;;4.13;2.70;;;19.60;91.10;;;;;;5114018;28;20027;-77
2023/07/23 00:37:06;;;;;;;5.82;2.70;;;19.60;91.30;;;;;;5095975;28;20035;-77
2023/07/23 00:39:31;;;;;;;4.00;2.60;;;19.50;91.40;;;;;;5114006;28;20042;-77
2023/07/23 00:41:57;;;;;;;3.97;2.53;;;19.50;91.50;;;;;;5095635;28;20472;-77
2023/07/23 00:44:23;;;;;;;2.88;2.05;;;19.50;91.40;;;;;;5095488;28;20454;-76
2023/07/23 00:46:49;;;;;;;3.72;2.25;;;19.50;91.30;;;;;;5095645;28;20035;-76
2023/07/23 00:49:15;;;;;;;5.38;3.10;;;19.50;91.40;;;;;;5113734;28;20016;-76
2023/07/23 00:51:41;;;;;;;3.95;2.20;;;19.50;91.50;;;;;;5113819;28;20028;-76
2023/07/23 00:54:07;;;;;;;4.72;2.67;;;19.40;91.40;;;;;;5095766;28;20463;-76
2023/07/23 00:56:35;;;;;;;5.03;2.70;;;19.50;91.50;;;;;;5113860;28;20027;-77
2023/07/23 00:59:01;;;;;;;7.82;3.70;;;19.40;91.50;;;;;;5113789;28;20027;-77
2023/07/23 01:01:30;;;;;;;3.20;2.15;;;19.40;91.50;;;;;;5113338;28;20106;-77
2023/07/23 01:03:55;;;;;;;2.97;2.20;;;19.40;91.50;;;;;;5113724;28;20028;-77
2023/07/23 01:06:23;;;;;;;4.68;2.17;;;19.50;91.40;;;;;;5095105;28;20036;-78
2023/07/23 01:08:50;;;;;;;3.85;2.42;;;19.50;91.20;;;;;;5113473;28;20024;-78
2023/07/23 01:11:16;;;;;;;3.75;2.30;;;19.60;91.20;;;;;;5094940;28;20031;-78
2023/07/23 01:13:43;;;;;;;2.95;2.17;;;19.60;91.10;;;;;;5095680;28;20028;-77
2023/07/23 01:16:10;;;;;;;3.38;2.40;;;19.60;91.00;;;;;;5113502;28;20031;-77
2023/07/23 01:18:40;;;;;;;4.25;2.25;;;19.70;91.30;;;;;;5113471;28;20204;-78
2023/07/23 01:21:06;;;;;;;4.80;2.70;;;19.70;91.00;;;;;;5113518;28;20059;-77
2023/07/23 01:23:32;;;;;;;5.18;2.65;;;19.60;91.00;;;;;;5112897;28;20023;-77
2023/07/23 01:25:58;;;;;;;4.47;2.85;;;19.60;91.00;;;;;;5094894;28;20126;-77
2023/07/23 01:28:24;;;;;;;3.38;2.70;;;19.60;91.00;;;;;;5113400;28;20107;-77
2023/07/23 01:30:52;;;;;;;4.38;3.00;;;19.60;91.10;;;;;;5113452;28;20059;-77
2023/07/23 01:33:18;;;;;;;4.03;3.00;;;19.50;91.30;;;;;;5113188;28;20101;-76
2023/07/23 01:35:45;;;;;;;3.63;2.38;;;19.40;91.50;;;;;;5113077;28;20027;-77
2023/07/23 01:38:12;;;;;;;7.07;3.05;;;19.30;91.50;;;;;;5116722;28;20036;-77
2023/07/23 01:40:39;;;;;;;3.63;2.58;;;19.40;91.50;;;;;;5117366;28;20028;-77
2023/07/23 01:43:06;;;;;;;5.15;3.05;;;19.40;91.40;;;;;;5099303;28;20406;-77
2023/07/23 01:45:32;;;;;;;5.00;2.90;;;19.40;91.30;;;;;;5116965;28;20498;-77
2023/07/23 01:47:57;;;;;;;5.03;3.85;;;19.50;91.60;;;;;;5098980;28;20126;-77
2023/07/23 01:50:23;;;;;;;5.10;3.03;;;19.50;91.50;;;;;;5098815;28;20058;-76
2023/07/23 01:52:48;;;;;;;5.20;3.13;;;19.40;91.50;;;;;;5098436;28;20368;-77
2023/07/23 01:55:14;;;;;;;3.35;2.22;;;19.40;91.60;;;;;;5117109;28;20036;-77
2023/07/23 01:57:40;;;;;;;3.92;2.30;;;19.30;91.60;;;;;;5098885;28;20032;-77
2023/07/23 02:00:07;;;;;;;5.47;2.65;;;19.40;91.60;;;;;;5098719;28;20036;-77
2023/07/23 02:02:32;;;;;;;5.50;2.35;;;19.40;91.60;;;;;;5117070;28;20024;-77
2023/07/23 02:04:58;;;;;;;3.35;2.58;;;19.40;91.50;;;;;;5081578;28;20038;-77
2023/07/23 02:07:24;;;;;;;5.28;2.72;;;19.40;91.40;;;;;;5117021;28;20464;-77
2023/07/23 02:09:50;;;;;;;5.10;3.53;;;19.50;91.40;;;;;;5098602;28;20030;-77
2023/07/23 02:12:16;;;;;;;4.05;2.33;;;19.40;91.70;;;;;;5116907;28;20032;-76
2023/07/23 02:14:42;;;;;;;2.70;2.13;;;19.50;91.70;;;;;;5081680;28;20046;-76
2023/07/23 02:17:07;;;;;;;3.65;2.25;;;19.50;91.40;;;;;;5116491;28;20147;-76
2023/07/23 02:19:33;;;;;;;5.93;2.90;;;19.40;91.30;;;;;;5116916;28;20072;-76
2023/07/23 02:21:59;;;;;;;4.82;2.53;;;19.50;91.30;;;;;;5097918;28;20023;-76
2023/07/23 02:24:24;;;;;;;4.43;3.17;;;19.50;91.30;;;;;;5098406;28;20032;-76
2023/07/23 02:26:50;;;;;;;4.28;2.83;;;19.50;91.40;;;;;;5116587;28;20035;-77
2023/07/23 02:29:16;;;;;;;4.70;3.25;;;19.40;91.50;;;;;;5098455;28;20467;-76
2023/07/23 02:31:41;;;;;;;6.25;4.10;;;19.40;91.60;;;;;;5116181;28;20049;-76
2023/07/23 02:34:07;;;;;;;3.28;2.50;;;19.30;91.90;;;;;;5116298;28;20024;-76
2023/07/23 02:36:34;;;;;;;4.38;2.70;;;19.20;92.00;;;;;;5116397;28;20388;-76
2023/07/23 02:39:00;;;;;;;4.45;2.83;;;19.20;92.00;;;;;;5116504;28;20031;-76
2023/07/23 02:41:26;;;;;;;4.32;2.88;;;19.30;91.90;;;;;;5116332;28;20039;-76
2023/07/23 02:43:53;;;;;;;4.07;2.55;;;19.30;91.80;;;;;;5116291;28;20468;-76
2023/07/23 02:46:19;;;;;;;4.78;2.70;;;19.30;91.70;;;;;;5116192;28;20039;-76
2023/07/23 02:48:45;;;;;;;3.45;2.67;;;19.30;91.80;;;;;;5115732;28;20034;-76
2023/07/23 02:51:10;;;;;;;3.35;2.65;;;19.20;92.10;;;;;;5094535;28;20083;-76
2023/07/23 02:53:36;;;;;;;4.90;2.15;;;19.20;92.10;;;;;;5095289;28;20032;-76
2023/07/23 02:56:02;;;;;;;2.90;2.10;;;19.20;91.90;;;;;;5095757;28;20036;-76
2023/07/23 02:58:28;;;;;;;4.72;2.35;;;19.30;91.80;;;;;;5095651;28;20052;-76
2023/07/23 03:00:56;;;;;;;4.53;2.10;;;19.30;91.70;;;;;;5096193;28;20422;-76
2023/07/23 03:03:22;;;;;;;3.42;2.17;;;19.30;91.70;;;;;;5095423;28;20028;-76
2023/07/23 03:05:48;;;;;;;2.90;2.03;;;19.30;91.70;;;;;;5098822;28;20071;-76
2023/07/23 03:08:14;;;;;;;2.78;1.77;;;19.30;91.70;;;;;;5099782;28;20384;-76
2023/07/23 03:10:41;;;;;;;3.60;1.70;;;19.30;91.70;;;;;;5097981;28;20055;-76
2023/07/23 03:13:07;;;;;;;5.65;2.63;;;19.40;91.60;;;;;;5095351;28;20024;-77
2023/07/23 03:15:34;;;;;;;2.88;2.30;;;19.40;91.60;;;;;;5095225;28;20051;-77
2023/07/23 03:18:00;;;;;;;5.25;2.85;;;19.40;91.50;;;;;;5094252;28;20336;-76
2023/07/23 03:20:26;;;;;;;4.18;2.22;;;19.40;91.50;;;;;;5095300;28;20032;-77
2023/07/23 03:22:52;;;;;;;3.67;2.28;;;19.40;91.50;;;;;;5094578;28;20024;-77
2023/07/23 03:25:18;;;;;;;3.67;2.35;;;19.40;91.50;;;;;;5095008;28;20107;-76
2023/07/23 03:27:43;;;;;;;3.35;2.28;;;19.40;91.50;;;;;;5076824;28;20055;-77
2023/07/23 03:30:10;;;;;;;2.17;1.80;;;19.40;91.50;;;;;;5094999;28;20030;-77
2023/07/23 03:32:36;;;;;;;2.85;1.88;;;19.40;91.50;;;;;;5094595;28;20032;-77
2023/07/23 03:35:02;;;;;;;3.65;2.20;;;19.40;91.50;;;;;;5095024;28;20020;-76
2023/07/23 03:37:29;;;;;;;4.47;1.80;;;19.50;91.40;;;;;;5094809;28;20357;-77
2023/07/23 03:39:55;;;;;;;3.17;1.77;;;19.50;91.40;;;;;;5094721;28;20028;-76
2023/07/23 03:42:20;;;;;;;5.25;2.40;;;19.50;91.20;;;;;;5093361;28;20446;-76
2023/07/23 03:44:46;;;;;;;4.13;2.75;;;19.60;91.30;;;;;;5094672;28;20165;-77
2023/07/23 03:47:16;;;;;;;3.63;2.13;;;19.60;91.30;;;;;;5094495;28;20132;-77
2023/07/23 03:49:43;;;;;;;3.83;2.50;;;19.50;91.20;;;;;;5099692;28;20089;-77
2023/07/23 03:52:09;;;;;;;3.50;2.38;;;19.50;91.20;;;;;;5114202;28;20103;-77
2023/07/23 03:54:35;;;;;;;3.47;2.40;;;19.50;91.10;;;;;;5114751;28;20114;-77
2023/07/23 03:57:02;;;;;;;3.65;2.47;;;19.50;91.10;;;;;;5114549;28;20038;-77
2023/07/23 03:59:39;;;;;;;3.13;2.22;;;19.60;91.00;;;;;;5095244;28;20035;-77
2023/07/23 04:02:06;;;;;;;4.28;2.08;;;19.60;91.00;;;;;;5114780;28;20031;-77
2023/07/23 04:04:35;;;;;;;3.58;2.30;;;19.60;91.00;;;;;;5114927;28;20031;-77
2023/07/23 04:07:02;;;;;;;4.97;2.75;;;19.60;90.90;;;;;;5114485;28;20111;-77
2023/07/23 04:09:27;;;;;;;2.97;1.85;;;19.60;90.90;;;;;;5114317;28;20096;-77
2023/07/23 04:11:54;;;;;;;3.58;2.08;;;19.70;90.80;;;;;;5114187;28;20456;-77
2023/07/23 04:14:19;;;;;;;3.88;2.10;;;19.70;90.80;;;;;;5114455;28;20114;-77
2023/07/23 04:16:46;;;;;;;4.22;2.33;;;19.80;90.70;;;;;;5114512;28;20114;-77
2023/07/23 04:19:12;;;;;;;2.58;1.85;;;19.80;90.70;;;;;;5114371;28;20472;-77
2023/07/23 04:21:37;;;;;;;4.25;2.33;;;19.80;90.70;;;;;;5078937;28;20039;-77
2023/07/23 04:24:03;;;;;;;3.40;1.83;;;19.80;90.60;;;;;;5113815;28;20032;-77
2023/07/23 04:26:30;;;;;;;3.13;2.30;;;19.80;90.60;;;;;;5113966;28;20036;-76
2023/07/23 04:28:56;;;;;;;6.75;2.72;;;19.80;90.60;;;;;;5114450;28;20035;-77
2023/07/23 04:31:21;;;;;;;8.77;3.15;;;19.80;90.50;;;;;;5114229;28;20092;-77
2023/07/23 04:33:47;;;;;;;6.47;2.83;;;19.80;90.30;;;;;;5113913;28;20095;-77
2023/07/23 04:36:14;;;;;;;3.33;2.75;;;19.80;90.40;;;;;;5096105;28;20460;-77
2023/07/23 04:38:41;;;;;;;5.82;2.80;;;19.70;90.40;;;;;;5113988;28;20074;-77
2023/07/23 04:41:07;;;;;;;5.63;3.33;;;19.70;90.50;;;;;;5113464;28;20032;-77
2023/07/23 04:43:34;;;;;;;4.28;2.53;;;19.60;90.60;;;;;;5113860;28;20019;-77
2023/07/23 04:46:00;;;;;;;3.92;2.65;;;19.50;90.70;;;;;;5095439;28;20036;-77
2023/07/23 04:48:26;;;;;;;5.40;2.20;;;19.50;90.90;;;;;;5095384;28;20038;-77
2023/07/23 04:50:56;;;;;;;5.15;2.88;;;19.50;90.90;;;;;;5113432;28;20119;-77
2023/07/23 04:53:23;;;;;;;4.47;3.00;;;19.40;91.00;;;;;;5095126;28;20028;-77
2023/07/23 04:55:56;;;;;;;3.92;2.70;;;19.40;91.00;;;;;;5113704;28;20059;-76
2023/07/23 04:58:23;;;;;;;5.57;3.28;;;19.40;90.90;;;;;;5113775;28;20544;-77
2023/07/23 05:00:49;;;;;;;4.97;2.75;;;19.40;91.20;;;;;;5113321;28;20048;-77
2023/07/23 05:03:15;;;;;;;4.57;2.95;;;19.30;91.20;;;;;;5095179;28;20440;-77
2023/07/23 05:05:52;;;;;;;4.40;3.03;;;19.30;91.00;;;;;;5113461;28;20073;-77
2023/07/23 05:08:18;;;;;;;8.23;2.88;;;19.30;91.20;;;;;;5117023;28;20030;-77
2023/07/23 05:10:44;;;;;;;5.45;3.53;;;19.30;91.20;;;;;;5117056;28;20023;-78
2023/07/23 05:13:12;;;;;;;4.10;3.13;;;19.20;91.20;;;;;;5117013;28;20444;-77
2023/07/23 05:15:37;;;;;;;7.30;3.72;;;19.20;91.10;;;;;;5095907;28;20035;-78
2023/07/23 05:18:03;;;;;;;5.40;3.17;;;19.10;91.10;;;;;;5113708;28;20447;-77
2023/07/23 05:20:28;;;;;;;6.47;3.53;;;19.00;91.10;;;;;;5094773;28;20028;-77
2023/07/23 05:22:55;;;;;;;6.50;3.50;;;18.90;91.20;;;;;;5112868;28;20028;-78
2023/07/23 05:25:21;;;;;;;6.22;3.50;;;18.90;91.40;;;;;;5113408;28;20077;-77
2023/07/23 05:27:46;;;;;;;6.80;3.25;;;18.90;91.50;;;;;;5113352;28;20124;-77
2023/07/23 05:30:14;;;;;;;7.30;3.65;;;18.90;91.60;;;;;;5095541;28;20052;-78
2023/07/23 05:32:39;;;;;;;6.40;4.32;;;18.90;91.70;;;;;;5078728;28;20079;-78
2023/07/23 05:35:05;;;;;;;4.40;3.10;;;18.80;91.60;;;;;;5113244;28;20148;-78
2023/07/23 05:37:31;;;;;;;4.72;3.22;;;18.80;91.60;;;;;;5094894;28;20040;-78
2023/07/23 05:39:57;;;;;;;5.22;3.15;;;18.80;91.80;;;;;;5112862;28;20020;-78
2023/07/23 05:42:22;;;;;;;5.53;3.58;;;18.80;91.90;;;;;;5094725;28;20067;-78
2023/07/23 05:44:49;;;;;;;7.57;3.42;;;18.80;91.80;;;;;;5094624;28;20420;-77
2023/07/23 05:47:15;;;;;;;6.70;3.53;;;18.70;91.70;;;;;;5077501;28;20128;-78
2023/07/23 05:49:41;;;;;;;4.97;2.88;;;18.80;91.80;;;;;;5112525;28;20079;-78
2023/07/23 05:52:07;;;;;;;4.72;3.08;;;18.70;91.80;;;;;;5094485;28;20494;-78
2023/07/23 05:54:32;;;;;;;5.75;2.97;;;18.60;91.90;;;;;;5094617;28;20491;-78
2023/07/23 05:56:59;;;;;;;5.68;3.90;;;18.60;92.20;;;;;;5112999;28;20482;-77
2023/07/23 05:59:24;;;;;;;6.63;3.38;;;18.50;92.10;;;;;;5094516;28;20360;-78
2023/07/23 06:01:51;;;;;;;10.63;3.38;;;18.50;92.10;;;;;;5113001;28;20115;-77
2023/07/23 06:04:16;;;;;;;6.15;3.65;;;18.50;92.20;;;;;;5112990;28;20191;-78
2023/07/23 06:06:42;;;;;;;3.85;2.78;;;18.50;92.20;;;;;;5112876;28;20126;-78
2023/07/23 06:09:08;;;;;;;5.45;3.08;;;18.50;92.40;;;;;;5112875;28;20107;-78
2023/07/23 06:11:34;;;;;;;5.72;3.20;;;18.50;92.80;;;;;;5112828;28;20082;-78
2023/07/23 06:14:00;;;;;;;8.77;3.40;;;18.40;92.60;;;;;;5112832;28;20483;-77
2023/07/23 06:16:25;;;;;;;4.82;3.40;;;18.40;92.80;;;;;;5112896;28;20063;-78
2023/07/23 06:18:51;;;;;;;7.45;2.85;;;18.40;92.80;;;;;;5094337;28;20120;-78
2023/07/23 06:21:17;;;;;;;3.88;2.97;;;18.40;92.80;;;;;;5112483;28;20036;-78
2023/07/23 06:23:42;;;;;;;5.18;3.70;;;18.40;92.80;;;;;;5096338;28;20195;-78
2023/07/23 06:26:08;;;;;;;7.97;3.17;;;18.40;92.80;;;;;;5116597;28;20072;-78
2023/07/23 06:28:34;;;;;;;4.97;3.17;;;18.40;92.80;;;;;;5116565;28;20031;-78
2023/07/23 06:30:59;;;;;;;4.38;3.47;;;18.40;93.00;;;;;;5116259;28;20106;-77
2023/07/23 06:33:25;;;;;;;6.30;3.10;;;18.40;92.90;;;;;;5116548;28;20120;-78
2023/07/23 06:35:51;;;;;;;3.92;2.90;;;18.40;92.90;;;;;;5098034;28;20424;-78
2023/07/23 06:38:17;;;;;;;3.83;2.72;;;18.40;93.00;;;;;;5097843;28;20027;-78
2023/07/23 06:40:47;;;;;;;5.20;3.72;;;18.40;93.00;;;;;;5116355;28;20119;-78
2023/07/23 06:43:16;;;;;;;8.25;3.55;;;18.40;93.00;;;;;;5116370;28;20027;-78
2023/07/23 06:45:46;;;;;;;8.02;3.70;;;18.40;93.10;;;;;;5116143;28;20123;-78
2023/07/23 06:48:13;;;;;;;6.13;3.33;;;18.40;93.10;;;;;;5116155;28;20069;-78
2023/07/23 06:50:39;;;;;;;4.70;3.05;;;18.40;93.00;;;;;;5115904;28;20120;-78
2023/07/23 06:53:05;;;;;;;6.22;3.10;;;18.40;93.10;;;;;;5115913;28;20460;-78
2023/07/23 06:55:35;;;;;;;7.25;3.65;;;18.40;93.30;;;;;;5116212;28;20084;-77
2023/07/23 06:58:01;;;;;;;7.78;3.25;;;18.40;93.60;;;;;;5081774;28;20036;-79
2023/07/23 07:00:27;;;;;;;5.80;3.22;;;18.40;93.70;;;;;;5098110;28;20038;-76
2023/07/23 07:02:52;;;;;;;7.10;3.65;;;18.40;93.40;;;;;;5115831;28;20027;-78
2023/07/23 07:05:18;;;;;;;4.57;3.20;;;18.40;93.50;;;;;;5084105;28;20488;-77
2023/07/23 07:07:44;;;;;;;5.03;3.00;;;18.40;93.70;;;;;;5118430;28;20024;-78
2023/07/23 07:10:09;;;;;;;4.00;2.72;;;18.30;94.00;;;;;;5100597;28;20024;-77
2023/07/23 07:12:35;;;;;;;7.18;3.85;;;18.30;93.90;;;;;;5120396;28;20044;-77
2023/07/23 07:15:01;;;;;;;5.90;3.40;;;18.30;94.00;;;;;;5120052;28;20027;-77
2023/07/23 07:17:27;;;;;;;7.97;3.50;;;18.20;94.10;;;;;;5118604;28;20114;-77
2023/07/23 07:19:52;;;;;;;4.38;3.10;;;18.20;94.40;;;;;;5097956;28;20094;-77
2023/07/23 07:22:18;;;;;;;6.47;3.45;;;18.10;94.60;;;;;;5115267;28;20084;-77
2023/07/23 07:24:44;;;;;;;6.25;3.83;;;18.10;94.80;;;;;;5097371;28;20481;-78
2023/07/23 07:27:10;;;;;;;3.85;3.10;;;18.10;95.10;;;;;;5115496;28;20472;-77
2023/07/23 07:29:40;;;;;;;5.65;3.50;;;18.10;95.40;;;;;;5115969;28;20041;-77
2023/07/23 07:32:07;;;;;;;5.97;3.13;;;18.10;95.40;;;;;;5115704;28;20066;-78
2023/07/23 07:34:33;;;;;;;7.15;3.70;;;18.10;95.50;;;;;;5096733;28;20214;-77
2023/07/23 07:36:59;;;;;;;5.38;3.20;;;18.10;95.60;;;;;;5097865;28;20114;-77
2023/07/23 07:39:24;;;;;;;7.95;3.83;;;18.10;95.70;;;;;;5116133;28;20032;-77
2023/07/23 07:41:53;;;;;;;6.18;3.35;;;18.00;95.80;;;;;;5115770;28;20440;-77
2023/07/23 07:44:21;;;;;;;4.18;3.15;;;18.00;96.20;;;;;;5097873;28;20493;-78
2023/07/23 07:46:47;;;;;;;4.65;3.55;;;18.00;96.00;;;;;;5115403;28;20027;-78
2023/07/23 07:49:12;;;;;;;5.28;3.42;;;17.90;96.40;;;;;;5115761;28;20035;-78
2023/07/23 07:51:43;;;;;;;6.60;3.55;;;17.90;96.60;;;;;;5093915;28;20399;-78
2023/07/23 07:54:11;;;;;;;5.22;2.92;;;17.90;96.70;;;;;;5079425;28;20051;-78
2023/07/23 07:56:37;;;;;;;5.25;3.25;;;17.90;96.80;;;;;;5096171;28;20042;-77
2023/07/23 07:59:04;;;;;;;5.63;3.45;;;17.90;96.80;;;;;;5096843;28;20107;-77
2023/07/23 08:01:30;;;;;;;5.22;3.45;;;17.90;96.80;;;;;;5096444;28;20341;-78
2023/07/23 08:03:56;;;;;;;5.05;3.80;;;18.00;96.90;;;;;;5095869;28;20039;-78
2023/07/23 08:06:22;;;;;;;8.45;3.20;;;18.00;97.20;;;;;;5094449;28;20032;-77
2023/07/23 08:08:50;;;;;;;9.48;3.95;;;17.90;97.30;;;;;;5094528;28;20119;-76
2023/07/23 08:11:16;;;;;;;4.82;3.88;;;17.90;97.50;;;;;;5094433;28;20059;-77
2023/07/23 08:13:43;;;;;;;7.63;3.50;;;17.80;97.50;;;;;;5094093;28;20115;-77
2023/07/23 08:16:12;;;;;;;5.18;3.53;;;17.80;97.60;;;;;;5096085;28;20104;-77
2023/07/23 08:18:38;;;;;;;3.83;3.33;;;17.80;97.80;;;;;;5095482;28;20086;-77
2023/07/23 08:21:04;;;;;;;7.88;4.03;;;17.90;97.70;;;;;;5094244;28;20451;-76
2023/07/23 08:23:30;;;;;;;5.85;3.72;;;17.90;98.00;;;;;;5094434;28;20031;-77
2023/07/23 08:25:58;;;;;;;4.40;3.42;;;17.90;98.20;;;;;;5092988;28;20464;-77
2023/07/23 08:28:49;;;;;;;5.78;3.97;;;17.90;98.40;;;;;;5094026;28;20034;-77
2023/07/23 08:31:16;;;;;;;5.28;3.70;;;17.90;98.30;;;;;;5094803;28;20050;-78
2023/07/23 08:33:46;;;;;;;4.60;3.30;;;18.00;98.20;;;;;;5093354;28;20036;-77
2023/07/23 08:36:12;;;;;;;5.97;4.32;;;18.00;98.40;;;;;;5092664;28;20123;-79
2023/07/23 08:38:38;;;;;;;5.20;4.03;;;17.90;98.40;;;;;;5092790;28;20173;-78
2023/07/23 08:41:30;;;;;;;5.30;3.85;;;17.80;98.60;;;;;;5092471;28;20028;-78
2023/07/23 08:44:35;;;;;;;6.77;4.20;;;17.70;98.80;;;;;;5093044;28;20492;-77
2023/07/23 08:47:12;;;;;;;6.63;4.28;;;17.70;99.00;;;;;;5061466;28;20408;-78
2023/07/23 08:49:40;;;;;;;7.70;4.20;;;17.70;99.10;;;;;;5095984;28;20031;-78
2023/07/23 08:52:06;;;;;;;5.57;4.10;;;17.70;99.10;;;;;;5114680;28;20120;-77
2023/07/23 08:54:34;;;;;;;5.80;3.95;;;17.70;99.10;;;;;;5113505;28;20046;-78
2023/07/23 08:57:01;;;;;;;5.35;3.63;;;17.70;99.10;;;;;;5114363;28;20031;-78
2023/07/23 08:59:27;;;;;;;6.50;4.20;;;17.70;99.00;;;;;;5114450;28;20031;-78
2023/07/23 09:01:54;;;;;;;6.03;4.57;;;17.70;99.20;;;;;;5115654;28;20069;-78
2023/07/23 09:04:20;;;;;;;6.53;4.43;;;17.70;99.50;;;;;;5115493;28;20058;-78
2023/07/23 09:06:47;;;;;;;4.80;3.80;;;17.70;99.40;;;;;;5115759;28;20044;-78
2023/07/23 09:09:13;;;;;;;5.70;4.05;;;17.70;99.50;;;;;;5096612;28;20028;-78
2023/07/23 09:11:39;;;;;;;5.40;3.97;;;17.70;99.70;;;;;;5114442;28;20016;-79
2023/07/23 09:14:16;;;;;;;6.10;4.20;;;17.70;99.60;;;;;;5113770;28;20023;-78
2023/07/23 09:16:44;;;;;;;8.85;4.20;;;17.70;99.60;;;;;;5113812;28;20024;-77
2023/07/23 09:19:12;;;;;;;5.40;3.40;;;17.80;99.60;;;;;;5114266;28;20028;-77
2023/07/23 09:21:39;;;;;;;5.95;3.88;;;17.80;99.70;;;;;;5096294;28;20070;-77
2023/07/23 09:24:06;;;;;;;7.15;4.45;;;17.80;99.90;;;;;;5114474;28;20028;-77
2023/07/23 09:26:32;;;;;;;5.35;3.90;;;17.80;99.90;;;;;;5126448;28;20099;-78
2023/07/23 09:28:59;;;;;;;6.53;4.15;;;17.80;99.90;;;;;;5130936;28;20069;-78
2023/07/23 09:31:30;;;;;;;5.55;3.72;;;17.90;99.90;;;;;;5127591;28;20085;-78
2023/07/23 09:33:58;;;;;;;7.95;3.03;;;17.90;99.80;;;;;;5113416;28;20030;-77
2023/07/23 09:36:25;;;;;;;4.18;3.47;;;17.90;99.70;;;;;;5113822;28;20028;-78
2023/07/23 09:39:04;;;;;;;5.55;3.42;;;17.90;99.70;;;;;;5113708;28;20455;-78
2023/07/23 09:41:35;;;;;;;5.80;2.90;;;18.00;99.70;;;;;;5113996;28;20464;-78
2023/07/23 09:44:04;;;;;;;4.75;3.17;;;18.00;99.70;;;;;;5112822;28;20098;-78
2023/07/23 09:46:30;;;;;;;3.33;2.60;;;18.00;99.80;;;;;;5113150;28;20035;-77
2023/07/23 09:48:57;;;;;;;3.72;2.85;;;18.00;99.70;;;;;;5094866;28;20487;-78
2023/07/23 09:51:22;;;;;;;5.20;2.97;;;18.00;99.90;;;;;;5113179;28;20509;-79
2023/07/23 09:53:48;;;;;;;4.95;3.60;;;17.90;99.80;;;;;;5094424;28;20102;-78
2023/07/23 09:56:15;;;;;;;3.40;2.60;;;17.90;99.90;;;;;;5112922;28;20115;-79
2023/07/23 09:58:43;;;;;;;5.15;2.83;;;17.90;99.90;;;;;;5115979;28;20376;-80
2023/07/23 10:01:09;;;;;;;4.20;2.80;;;17.90;99.90;;;;;;5117009;28;20447;-80
2023/07/23 10:03:36;;;;;;;3.28;2.53;;;17.90;99.90;;;;;;5117025;28;20111;-78
2023/07/23 10:06:02;;;;;;;3.08;2.42;;;17.90;99.90;;;;;;5117091;28;20035;-78
2023/07/23 10:08:30;;;;;;;3.30;2.50;;;17.90;99.90;;;;;;5098659;28;20028;-78
2023/07/23 10:10:56;;;;;;;4.85;2.90;;;17.90;99.90;;;;;;5116934;28;20460;-79
2023/07/23 10:13:22;;;;;;;4.20;2.63;;;17.90;99.90;;;;;;5081557;28;20464;-79
2023/07/23 10:15:50;;;;;;;3.35;2.47;;;17.90;99.90;;;;;;5116709;28;20115;-79
2023/07/23 10:18:17;;;;;;;3.90;2.85;;;18.00;99.90;;;;;;5116756;28;20023;-79
2023/07/23 10:20:45;;;;;;;4.75;2.22;;;18.00;99.90;;;;;;5081418;28;20421;-79
2023/07/23 10:23:11;;;;;;;2.97;2.40;;;18.10;99.90;;;;;;5097816;28;20047;-78
2023/07/23 10:25:37;;;;;;;2.83;1.95;;;18.10;99.90;;;;;;5081385;28;20480;-77
2023/07/23 10:28:04;;;;;;;3.50;2.00;;;18.10;99.90;;;;;;5098364;28;20035;-78
2023/07/23 10:30:31;;;;;;;3.05;1.73;;;18.20;99.90;;;;;;5116051;28;20047;-76
2023/07/23 10:33:09;;;;;;;1.83;1.48;;;18.20;99.90;;;;;;5116287;28;20118;-78
2023/07/23 10:35:53;;;;;;;1.77;1.45;;;18.20;99.90;;;;;;5116333;28;20458;-77
2023/07/23 10:38:20;;;;;;;1.83;1.48;;;18.20;99.90;;;;;;5116630;28;20031;-78
2023/07/23 10:40:47;;;;;;;1.45;1.30;;;18.20;99.90;;;;;;5116442;28;20138;-78
2023/07/23 10:43:13;;;;;;;2.75;1.40;;;18.20;99.90;;;;;;5116078;28;20031;-77
2023/07/23 10:46:01;;;;;;;1.60;1.27;;;18.20;99.90;;;;;;5097790;28;20126;-77
2023/07/23 10:48:49;;;;;;;2.72;1.02;;;18.20;99.90;;;;;;5116117;28;20063;-77
2023/07/23 10:51:20;;;;;;;2.20;1.20;;;18.20;99.90;;;;;;5098323;28;20048;-77
2023/07/23 10:54:06;;;;;;;2.33;1.05;;;18.20;99.90;;;;;;5115812;28;20186;-78
2023/07/23 10:56:38;;;;;;;1.70;1.10;;;18.20;99.90;;;;;;5116008;28;20039;-77
2023/07/23 10:59:19;;;;;;;1.83;1.42;;;18.20;99.90;;;;;;5116000;28;20023;-77
2023/07/23 11:01:48;;;;;;;1.50;1.10;;;18.20;99.90;;;;;;5097287;28;20036;-78
2023/07/23 11:04:16;;;;;;;1.45;1.13;;;18.20;99.90;;;;;;5115454;28;20020;-79
2023/07/23 11:07:06;;;;;;;1.50;1.40;;;18.10;99.90;;;;;;5115405;28;20069;-77
2023/07/23 11:09:37;;;;;;;1.20;1.10;;;18.10;99.90;;;;;;5115426;28;20027;-78
2023/07/23 11:12:05;;;;;;;2.25;1.60;;;18.10;99.90;;;;;;5097594;28;20054;-76
2023/07/23 11:14:32;;;;;;;2.08;1.67;;;18.10;99.90;;;;;;5115744;28;20023;-77
2023/07/23 11:17:00;;;;;;;3.85;1.90;;;18.10;99.90;;;;;;5115723;28;20107;-77
2023/07/23 11:19:28;;;;;;;2.63;1.98;;;18.10;99.90;;;;;;5115326;28;20031;-77
2023/07/23 11:21:56;;;;;;;1.80;1.52;;;18.10;99.90;;;;;;5114950;28;20030;-76
2023/07/23 11:24:23;;;;;;;3.28;1.85;;;18.10;99.90;;;;;;5096538;28;20019;-77
2023/07/23 11:26:49;;;;;;;2.38;1.85;;;18.00;99.90;;;;;;5096811;28;20424;-78
2023/07/23 11:29:15;;;;;;;3.30;1.83;;;18.10;99.90;;;;;;5115179;28;20027;-76
2023/07/23 11:31:42;;;;;;;1.83;1.65;;;18.10;99.90;;;;;;5115338;28;20171;-76
2023/07/23 11:34:08;;;;;;;2.55;1.95;;;18.10;99.90;;;;;;5115755;28;20102;-77
2023/07/23 11:36:38;;;;;;;3.38;2.15;;;18.10;99.90;;;;;;5115321;28;20024;-77
2023/07/23 11:39:05;;;;;;;2.75;2.30;;;18.20;99.90;;;;;;5097054;28;20023;-77
2023/07/23 11:41:32;;;;;;;3.42;2.50;;;18.20;99.90;;;;;;5115349;28;20028;-77
2023/07/23 11:44:03;;;;;;;3.10;2.55;;;18.30;99.90;;;;;;5114994;28;20459;-77
2023/07/23 11:46:33;;;;;;;3.65;2.22;;;18.20;99.90;;;;;;5097566;28;20115;-77
2023/07/23 11:49:00;;;;;;;4.13;2.92;;;18.30;99.90;;;;;;5114990;28;20035;-78
2023/07/23 11:51:28;;;;;;;5.15;3.30;;;18.40;99.90;;;;;;5096802;28;20051;-77
2023/07/23 11:54:04;;;;;;;4.03;3.20;;;18.40;99.90;;;;;;5114638;28;20412;-77
2023/07/23 11:56:33;;;;;;;4.45;3.17;;;18.50;99.90;;;;;;5114844;28;20059;-78
2023/07/23 11:59:07;;;;;;;4.10;2.92;;;18.50;99.90;;;;;;5096136;28;20383;-78
2023/07/23 12:01:35;;;;;;;5.72;2.75;;;18.60;99.90;;;;;;5114528;28;20435;-77
2023/07/23 12:04:03;;;;;;;5.95;3.60;;;18.70;99.90;;;;;;5095952;28;20065;-78
2023/07/23 12:06:31;;;;;;;6.55;3.67;;;18.70;99.90;;;;;;5114767;28;20032;-77
2023/07/23 12:08:57;;;;;;;3.10;2.72;;;18.80;99.90;;;;;;5114411;28;20028;-78
2023/07/23 12:11:25;;;;;;;3.90;3.50;;;18.80;99.90;;;;;;5114640;28;20020;-78
2023/07/23 12:13:52;;;;;;;5.63;3.45;;;18.80;99.90;;;;;;5114122;28;20497;-79
2023/07/23 12:16:42;;;;;;;4.45;3.17;;;18.90;99.90;;;;;;5114624;28;20032;-78
2023/07/23 12:19:19;;;;;;;3.65;3.05;;;19.00;99.90;;;;;;5114430;28;20016;-78
2023/07/23 12:21:47;;;;;;;4.97;3.75;;;18.90;99.90;;;;;;5113937;28;20027;-78
2023/07/23 12:24:42;;;;;;;3.50;3.20;;;19.00;99.90;;;;;;5114070;28;20027;-78
2023/07/23 12:27:08;;;;;;;5.78;3.22;;;19.10;99.90;;;;;;5091887;28;20503;-79
2023/07/23 12:29:41;;;;;;;5.88;3.72;;;19.10;99.90;;;;;;5114218;28;20027;-79
2023/07/23 12:32:11;;;;;;;4.45;3.28;;;19.10;99.90;;;;;;5114068;28;20435;-78
2023/07/23 12:34:39;;;;;;;4.47;3.15;;;19.20;99.90;;;;;;5114253;28;20031;-79
2023/07/23 12:37:05;;;;;;;3.80;3.22;;;19.20;99.90;;;;;;5113731;28;20050;-79
2023/07/23 12:39:30;;;;;;;3.70;3.22;;;19.30;99.90;;;;;;5113410;28;20044;-79
2023/07/23 12:41:56;;;;;;;4.85;3.97;;;19.30;99.90;;;;;;5095703;28;20062;-79
2023/07/23 12:44:22;;;;;;;4.32;3.50;;;19.30;99.90;;;;;;5096004;28;20038;-79
2023/07/23 12:46:47;;;;;;;4.97;3.10;;;19.30;99.90;;;;;;5113774;28;20080;-79
2023/07/23 12:49:13;;;;;;;3.67;3.28;;;19.40;99.90;;;;;;5078792;28;20487;-79